METAR Data
IDs: Format: Raw Decoded Include TAF

Data at: 2030 UTC 18 Apr 2021

LIVR 181755Z 11007KT 4500 BR SCT005 BKN015 M02/M03 Q1012 RMK OVC MON INVIS VIS MIN 4500